sensor_id;sensor_type;location;lat;lon;timestamp;temperature;humidity
67192;HTU21D;54120;53.504;49.426;2023-05-10T00:01:33;5.92;53.41
67192;HTU21D;54120;53.504;49.426;2023-05-10T00:03:58;5.90;53.23
67192;HTU21D;54120;53.504;49.426;2023-05-10T00:06:24;5.94;52.76
67192;HTU21D;54120;53.504;49.426;2023-05-10T00:08:51;5.98;52.77
67192;HTU21D;54120;53.504;49.426;2023-05-10T00:11:17;5.92;54.55
67192;HTU21D;54120;53.504;49.426;2023-05-10T00:13:42;5.78;55.47
67192;HTU21D;54120;53.504;49.426;2023-05-10T00:16:08;5.72;56.91
67192;HTU21D;54120;53.504;49.426;2023-05-10T00:18:35;5.68;56.42
67192;HTU21D;54120;53.504;49.426;2023-05-10T00:21:01;5.60;57.25
67192;HTU21D;54120;53.504;49.426;2023-05-10T00:23:27;5.65;58.70
67192;HTU21D;54120;53.504;49.426;2023-05-10T00:25:54;5.59;61.21
67192;HTU21D;54120;53.504;49.426;2023-05-10T00:28:20;5.51;58.80
67192;HTU21D;54120;53.504;49.426;2023-05-10T00:30:46;5.67;57.47
67192;HTU21D;54120;53.504;49.426;2023-05-10T00:33:14;5.86;55.27
67192;HTU21D;54120;53.504;49.426;2023-05-10T00:35:40;6.02;54.84
67192;HTU21D;54120;53.504;49.426;2023-05-10T00:38:06;6.09;55.08
67192;HTU21D;54120;53.504;49.426;2023-05-10T00:40:33;6.13;54.17
67192;HTU21D;54120;53.504;49.426;2023-05-10T00:43:01;6.21;53.07
67192;HTU21D;54120;53.504;49.426;2023-05-10T00:45:27;6.22;51.97
67192;HTU21D;54120;53.504;49.426;2023-05-10T00:47:54;6.25;51.42
67192;HTU21D;54120;53.504;49.426;2023-05-10T00:50:22;6.26;51.46
67192;HTU21D;54120;53.504;49.426;2023-05-10T00:52:49;6.29;52.09
67192;HTU21D;54120;53.504;49.426;2023-05-10T00:55:16;6.34;52.21
67192;HTU21D;54120;53.504;49.426;2023-05-10T00:57:42;6.39;51.31
67192;HTU21D;54120;53.504;49.426;2023-05-10T01:00:09;6.45;51.53
67192;HTU21D;54120;53.504;49.426;2023-05-10T01:02:37;6.50;51.76
67192;HTU21D;54120;53.504;49.426;2023-05-10T01:05:03;6.58;51.17
67192;HTU21D;54120;53.504;49.426;2023-05-10T01:07:30;6.67;50.73
67192;HTU21D;54120;53.504;49.426;2023-05-10T01:09:56;6.74;50.55
67192;HTU21D;54120;53.504;49.426;2023-05-10T01:12:23;6.84;50.24
67192;HTU21D;54120;53.504;49.426;2023-05-10T01:14:49;6.99;49.15
67192;HTU21D;54120;53.504;49.426;2023-05-10T01:17:16;7.11;48.99
67192;HTU21D;54120;53.504;49.426;2023-05-10T01:19:42;7.47;47.49
67192;HTU21D;54120;53.504;49.426;2023-05-10T01:25:22;7.50;47.21
67192;HTU21D;54120;53.504;49.426;2023-05-10T01:31:07;7.49;45.82
67192;HTU21D;54120;53.504;49.426;2023-05-10T01:33:50;7.43;46.38
67192;HTU21D;54120;53.504;49.426;2023-05-10T01:36:40;7.41;46.89
67192;HTU21D;54120;53.504;49.426;2023-05-10T01:39:26;7.34;47.22
67192;HTU21D;54120;53.504;49.426;2023-05-10T01:42:23;7.37;47.73
67192;HTU21D;54120;53.504;49.426;2023-05-10T01:45:14;7.39;47.92
67192;HTU21D;54120;53.504;49.426;2023-05-10T01:47:46;7.46;48.11
67192;HTU21D;54120;53.504;49.426;2023-05-10T01:50:19;7.56;47.51
67192;HTU21D;54120;53.504;49.426;2023-05-10T01:52:51;7.73;49.75
67192;HTU21D;54120;53.504;49.426;2023-05-10T01:55:21;7.92;50.60
67192;HTU21D;54120;53.504;49.426;2023-05-10T01:57:52;8.02;52.00
67192;HTU21D;54120;53.504;49.426;2023-05-10T02:00:23;7.88;48.21
67192;HTU21D;54120;53.504;49.426;2023-05-10T02:02:50;7.74;53.33
67192;HTU21D;54120;53.504;49.426;2023-05-10T02:05:18;7.78;52.05
67192;HTU21D;54120;53.504;49.426;2023-05-10T02:07:46;7.83;51.94
67192;HTU21D;54120;53.504;49.426;2023-05-10T02:10:13;7.89;51.77
67192;HTU21D;54120;53.504;49.426;2023-05-10T02:12:46;7.87;58.46
67192;HTU21D;54120;53.504;49.426;2023-05-10T02:15:17;7.86;57.56
67192;HTU21D;54120;53.504;49.426;2023-05-10T02:17:46;7.92;51.53
67192;HTU21D;54120;53.504;49.426;2023-05-10T02:20:14;8.13;55.47
67192;HTU21D;54120;53.504;49.426;2023-05-10T02:22:42;8.15;55.43
67192;HTU21D;54120;53.504;49.426;2023-05-10T02:25:09;8.11;52.50
67192;HTU21D;54120;53.504;49.426;2023-05-10T02:27:37;8.34;54.62
67192;HTU21D;54120;53.504;49.426;2023-05-10T02:30:05;8.44;48.03
67192;HTU21D;54120;53.504;49.426;2023-05-10T02:32:34;8.63;47.41
67192;HTU21D;54120;53.504;49.426;2023-05-10T02:35:02;8.81;52.32
67192;HTU21D;54120;53.504;49.426;2023-05-10T02:37:28;8.94;50.76
67192;HTU21D;54120;53.504;49.426;2023-05-10T02:39:56;9.16;49.92
67192;HTU21D;54120;53.504;49.426;2023-05-10T02:42:27;9.33;50.91
67192;HTU21D;54120;53.504;49.426;2023-05-10T02:44:59;9.29;50.53
67192;HTU21D;54120;53.504;49.426;2023-05-10T02:47:27;9.32;52.74
67192;HTU21D;54120;53.504;49.426;2023-05-10T02:49:53;9.45;51.09
67192;HTU21D;54120;53.504;49.426;2023-05-10T02:52:24;9.46;48.31
67192;HTU21D;54120;53.504;49.426;2023-05-10T02:54:55;9.48;49.45
67192;HTU21D;54120;53.504;49.426;2023-05-10T02:57:33;9.63;50.73
67192;HTU21D;54120;53.504;49.426;2023-05-10T03:00:01;9.74;47.11
67192;HTU21D;54120;53.504;49.426;2023-05-10T03:02:28;9.64;49.49
67192;HTU21D;54120;53.504;49.426;2023-05-10T03:04:56;9.55;46.38
67192;HTU21D;54120;53.504;49.426;2023-05-10T03:07:22;9.61;45.28
67192;HTU21D;54120;53.504;49.426;2023-05-10T03:09:49;9.89;43.55
67192;HTU21D;54120;53.504;49.426;2023-05-10T03:13:28;9.90;44.94
67192;HTU21D;54120;53.504;49.426;2023-05-10T03:18:18;9.71;41.33
67192;HTU21D;54120;53.504;49.426;2023-05-10T03:20:50;9.63;41.90
67192;HTU21D;54120;53.504;49.426;2023-05-10T03:23:43;9.67;41.25
67192;HTU21D;54120;53.504;49.426;2023-05-10T03:26:13;9.74;41.40
67192;HTU21D;54120;53.504;49.426;2023-05-10T03:28:41;9.64;40.88
67192;HTU21D;54120;53.504;49.426;2023-05-10T03:31:08;9.60;41.55
67192;HTU21D;54120;53.504;49.426;2023-05-10T03:33:57;9.67;41.67
67192;HTU21D;54120;53.504;49.426;2023-05-10T03:36:23;9.59;42.04
67192;HTU21D;54120;53.504;49.426;2023-05-10T03:38:49;9.60;42.16
67192;HTU21D;54120;53.504;49.426;2023-05-10T03:41:15;9.64;42.14
67192;HTU21D;54120;53.504;49.426;2023-05-10T03:43:41;9.85;42.01
67192;HTU21D;54120;53.504;49.426;2023-05-10T03:46:07;9.98;40.97
67192;HTU21D;54120;53.504;49.426;2023-05-10T03:48:33;9.86;42.03
67192;HTU21D;54120;53.504;49.426;2023-05-10T03:50:59;9.94;41.26
67192;HTU21D;54120;53.504;49.426;2023-05-10T03:53:25;10.24;40.84
67192;HTU21D;54120;53.504;49.426;2023-05-10T03:55:52;10.30;40.65
67192;HTU21D;54120;53.504;49.426;2023-05-10T03:58:18;10.30;40.70
67192;HTU21D;54120;53.504;49.426;2023-05-10T04:00:44;10.53;40.91
67192;HTU21D;54120;53.504;49.426;2023-05-10T04:03:11;10.60;40.30
67192;HTU21D;54120;53.504;49.426;2023-05-10T04:05:38;10.90;39.05
67192;HTU21D;54120;53.504;49.426;2023-05-10T04:08:04;10.89;39.03
67192;HTU21D;54120;53.504;49.426;2023-05-10T04:10:31;10.94;39.37
67192;HTU21D;54120;53.504;49.426;2023-05-10T04:12:57;11.07;39.17
67192;HTU21D;54120;53.504;49.426;2023-05-10T04:15:23;11.18;37.71
67192;HTU21D;54120;53.504;49.426;2023-05-10T04:17:49;11.18;37.74
67192;HTU21D;54120;53.504;49.426;2023-05-10T04:20:16;11.39;37.48
67192;HTU21D;54120;53.504;49.426;2023-05-10T04:22:43;11.43;37.53
67192;HTU21D;54120;53.504;49.426;2023-05-10T04:25:09;11.92;36.29
67192;HTU21D;54120;53.504;49.426;2023-05-10T04:27:35;12.22;35.24
67192;HTU21D;54120;53.504;49.426;2023-05-10T04:30:01;12.49;34.74
67192;HTU21D;54120;53.504;49.426;2023-05-10T04:32:27;12.94;34.65
67192;HTU21D;54120;53.504;49.426;2023-05-10T04:34:53;12.81;33.18
67192;HTU21D;54120;53.504;49.426;2023-05-10T04:37:19;13.14;33.19
67192;HTU21D;54120;53.504;49.426;2023-05-10T04:39:47;13.21;33.14
67192;HTU21D;54120;53.504;49.426;2023-05-10T04:42:13;13.43;32.22
67192;HTU21D;54120;53.504;49.426;2023-05-10T04:44:40;13.71;31.54
67192;HTU21D;54120;53.504;49.426;2023-05-10T04:47:07;13.63;32.27
67192;HTU21D;54120;53.504;49.426;2023-05-10T04:49:32;14.15;32.07
67192;HTU21D;54120;53.504;49.426;2023-05-10T04:51:58;15.04;30.38
67192;HTU21D;54120;53.504;49.426;2023-05-10T04:54:24;15.17;29.32
67192;HTU21D;54120;53.504;49.426;2023-05-10T04:56:51;14.85;30.54
67192;HTU21D;54120;53.504;49.426;2023-05-10T04:59:17;14.91;30.96
67192;HTU21D;54120;53.504;49.426;2023-05-10T05:01:43;15.47;29.55
67192;HTU21D;54120;53.504;49.426;2023-05-10T05:04:09;15.83;28.60
67192;HTU21D;54120;53.504;49.426;2023-05-10T05:06:35;15.82;28.50
67192;HTU21D;54120;53.504;49.426;2023-05-10T05:09:01;15.96;28.75
67192;HTU21D;54120;53.504;49.426;2023-05-10T05:11:27;16.42;27.50
67192;HTU21D;54120;53.504;49.426;2023-05-10T05:13:53;16.72;27.33
67192;HTU21D;54120;53.504;49.426;2023-05-10T05:16:19;17.47;25.49
67192;HTU21D;54120;53.504;49.426;2023-05-10T05:18:45;17.19;26.49
67192;HTU21D;54120;53.504;49.426;2023-05-10T05:21:19;17.38;25.91
67192;HTU21D;54120;53.504;49.426;2023-05-10T05:23:45;17.21;26.52
67192;HTU21D;54120;53.504;49.426;2023-05-10T05:26:12;19.02;23.80
67192;HTU21D;54120;53.504;49.426;2023-05-10T05:28:38;18.55;23.44
67192;HTU21D;54120;53.504;49.426;2023-05-10T05:31:05;18.53;24.06
67192;HTU21D;54120;53.504;49.426;2023-05-10T05:33:32;18.74;23.21
67192;HTU21D;54120;53.504;49.426;2023-05-10T05:36:01;18.23;24.64
67192;HTU21D;54120;53.504;49.426;2023-05-10T05:38:27;18.84;23.46
67192;HTU21D;54120;53.504;49.426;2023-05-10T05:40:54;18.13;24.04
67192;HTU21D;54120;53.504;49.426;2023-05-10T05:43:21;18.30;23.90
67192;HTU21D;54120;53.504;49.426;2023-05-10T05:45:47;19.53;21.73
67192;HTU21D;54120;53.504;49.426;2023-05-10T05:48:14;18.92;22.26
67192;HTU21D;54120;53.504;49.426;2023-05-10T05:50:41;20.31;19.89
67192;HTU21D;54120;53.504;49.426;2023-05-10T05:53:09;20.84;19.13
67192;HTU21D;54120;53.504;49.426;2023-05-10T05:55:36;19.32;21.36
67192;HTU21D;54120;53.504;49.426;2023-05-10T05:58:03;19.67;20.04
67192;HTU21D;54120;53.504;49.426;2023-05-10T06:00:30;19.11;20.55
67192;HTU21D;54120;53.504;49.426;2023-05-10T06:02:57;19.37;20.12
67192;HTU21D;54120;53.504;49.426;2023-05-10T06:05:24;20.30;17.70
67192;HTU21D;54120;53.504;49.426;2023-05-10T06:07:51;18.57;20.47
67192;HTU21D;54120;53.504;49.426;2023-05-10T06:10:20;18.06;21.76
67192;HTU21D;54120;53.504;49.426;2023-05-10T06:12:48;18.56;21.50
67192;HTU21D;54120;53.504;49.426;2023-05-10T06:15:15;20.72;17.64
67192;HTU21D;54120;53.504;49.426;2023-05-10T06:17:41;19.37;19.44
67192;HTU21D;54120;53.504;49.426;2023-05-10T06:20:09;18.78;19.67
67192;HTU21D;54120;53.504;49.426;2023-05-10T06:22:36;18.95;20.04
67192;HTU21D;54120;53.504;49.426;2023-05-10T06:25:02;19.63;18.95
67192;HTU21D;54120;53.504;49.426;2023-05-10T06:27:28;18.71;19.45
67192;HTU21D;54120;53.504;49.426;2023-05-10T06:29:54;18.29;20.40
67192;HTU21D;54120;53.504;49.426;2023-05-10T06:32:20;19.58;18.76
67192;HTU21D;54120;53.504;49.426;2023-05-10T06:34:46;18.70;19.70
67192;HTU21D;54120;53.504;49.426;2023-05-10T06:37:12;19.57;18.54
67192;HTU21D;54120;53.504;49.426;2023-05-10T06:39:38;19.96;18.15
67192;HTU21D;54120;53.504;49.426;2023-05-10T06:42:04;20.70;16.93
67192;HTU21D;54120;53.504;49.426;2023-05-10T06:44:30;19.84;17.16
67192;HTU21D;54120;53.504;49.426;2023-05-10T06:46:56;19.75;17.84
67192;HTU21D;54120;53.504;49.426;2023-05-10T06:49:22;21.84;15.64
67192;HTU21D;54120;53.504;49.426;2023-05-10T06:51:48;20.07;16.33
67192;HTU21D;54120;53.504;49.426;2023-05-10T06:54:14;18.84;18.17
67192;HTU21D;54120;53.504;49.426;2023-05-10T06:56:40;19.12;18.86
67192;HTU21D;54120;53.504;49.426;2023-05-10T06:59:06;19.02;18.22
67192;HTU21D;54120;53.504;49.426;2023-05-10T07:01:33;19.83;17.32
67192;HTU21D;54120;53.504;49.426;2023-05-10T07:03:59;21.75;15.87
67192;HTU21D;54120;53.504;49.426;2023-05-10T07:06:25;21.51;15.06
67192;HTU21D;54120;53.504;49.426;2023-05-10T07:08:51;19.48;16.74
67192;HTU21D;54120;53.504;49.426;2023-05-10T07:11:17;20.45;16.02
67192;HTU21D;54120;53.504;49.426;2023-05-10T07:13:43;22.17;14.41
67192;HTU21D;54120;53.504;49.426;2023-05-10T07:16:10;22.87;13.69
67192;HTU21D;54120;53.504;49.426;2023-05-10T07:18:37;23.72;12.77
67192;HTU21D;54120;53.504;49.426;2023-05-10T07:21:03;23.08;13.07
67192;HTU21D;54120;53.504;49.426;2023-05-10T07:23:29;20.33;16.16
67192;HTU21D;54120;53.504;49.426;2023-05-10T07:25:55;19.89;15.90
67192;HTU21D;54120;53.504;49.426;2023-05-10T07:28:23;18.79;17.79
67192;HTU21D;54120;53.504;49.426;2023-05-10T07:30:50;17.79;18.86
67192;HTU21D;54120;53.504;49.426;2023-05-10T07:33:16;17.06;20.11
67192;HTU21D;54120;53.504;49.426;2023-05-10T07:35:42;17.67;19.55
67192;HTU21D;54120;53.504;49.426;2023-05-10T07:38:09;19.06;18.09
67192;HTU21D;54120;53.504;49.426;2023-05-10T07:40:37;19.63;17.35
67192;HTU21D;54120;53.504;49.426;2023-05-10T07:43:03;19.84;17.58
67192;HTU21D;54120;53.504;49.426;2023-05-10T07:45:29;18.26;18.93
67192;HTU21D;54120;53.504;49.426;2023-05-10T07:47:56;17.50;20.20
67192;HTU21D;54120;53.504;49.426;2023-05-10T07:50:22;17.14;21.23
67192;HTU21D;54120;53.504;49.426;2023-05-10T07:52:48;16.76;21.19
67192;HTU21D;54120;53.504;49.426;2023-05-10T07:55:14;16.10;22.80
67192;HTU21D;54120;53.504;49.426;2023-05-10T07:57:40;16.12;23.27
67192;HTU21D;54120;53.504;49.426;2023-05-10T08:00:07;16.04;22.97
67192;HTU21D;54120;53.504;49.426;2023-05-10T08:02:35;15.61;22.99
67192;HTU21D;54120;53.504;49.426;2023-05-10T08:05:01;15.32;23.14
67192;HTU21D;54120;53.504;49.426;2023-05-10T08:07:27;15.49;23.54
67192;HTU21D;54120;53.504;49.426;2023-05-10T08:09:55;15.69;23.54
67192;HTU21D;54120;53.504;49.426;2023-05-10T08:12:21;15.88;23.39
67192;HTU21D;54120;53.504;49.426;2023-05-10T08:14:47;16.15;22.41
67192;HTU21D;54120;53.504;49.426;2023-05-10T08:17:13;16.34;21.57
67192;HTU21D;54120;53.504;49.426;2023-05-10T08:19:40;16.51;22.34
67192;HTU21D;54120;53.504;49.426;2023-05-10T08:22:06;16.82;22.06
67192;HTU21D;54120;53.504;49.426;2023-05-10T08:24:33;16.75;21.27
67192;HTU21D;54120;53.504;49.426;2023-05-10T08:27:10;16.43;22.79
67192;HTU21D;54120;53.504;49.426;2023-05-10T08:29:37;16.29;22.40
67192;HTU21D;54120;53.504;49.426;2023-05-10T08:32:03;16.20;22.81
67192;HTU21D;54120;53.504;49.426;2023-05-10T08:34:29;16.19;22.95
67192;HTU21D;54120;53.504;49.426;2023-05-10T08:36:57;15.96;23.62
67192;HTU21D;54120;53.504;49.426;2023-05-10T08:39:23;15.88;23.28
67192;HTU21D;54120;53.504;49.426;2023-05-10T08:41:51;16.04;22.96
67192;HTU21D;54120;53.504;49.426;2023-05-10T08:44:19;16.31;23.86
67192;HTU21D;54120;53.504;49.426;2023-05-10T08:46:46;16.71;22.61
67192;HTU21D;54120;53.504;49.426;2023-05-10T08:49:17;16.56;21.95
67192;HTU21D;54120;53.504;49.426;2023-05-10T08:51:52;16.17;22.91
67192;HTU21D;54120;53.504;49.426;2023-05-10T08:54:21;16.37;23.27
67192;HTU21D;54120;53.504;49.426;2023-05-10T08:56:48;16.32;22.24
67192;HTU21D;54120;53.504;49.426;2023-05-10T08:59:14;16.42;22.58
67192;HTU21D;54120;53.504;49.426;2023-05-10T09:01:42;16.98;21.95
67192;HTU21D;54120;53.504;49.426;2023-05-10T09:04:10;16.74;21.65
67192;HTU21D;54120;53.504;49.426;2023-05-10T09:06:36;16.44;22.21
67192;HTU21D;54120;53.504;49.426;2023-05-10T09:09:03;16.57;22.50
67192;HTU21D;54120;53.504;49.426;2023-05-10T09:11:29;16.75;22.83
67192;HTU21D;54120;53.504;49.426;2023-05-10T09:13:56;16.74;22.03
67192;HTU21D;54120;53.504;49.426;2023-05-10T09:16:23;16.74;22.92
67192;HTU21D;54120;53.504;49.426;2023-05-10T09:18:49;17.15;21.53
67192;HTU21D;54120;53.504;49.426;2023-05-10T09:21:15;17.31;21.50
67192;HTU21D;54120;53.504;49.426;2023-05-10T09:23:45;17.40;20.82
67192;HTU21D;54120;53.504;49.426;2023-05-10T09:26:13;17.14;21.74
67192;HTU21D;54120;53.504;49.426;2023-05-10T09:28:56;17.14;21.98
67192;HTU21D;54120;53.504;49.426;2023-05-10T09:31:23;17.65;20.60
67192;HTU21D;54120;53.504;49.426;2023-05-10T09:33:51;17.83;20.97
67192;HTU21D;54120;53.504;49.426;2023-05-10T09:36:18;17.30;21.79
67192;HTU21D;54120;53.504;49.426;2023-05-10T09:38:51;17.80;21.49
67192;HTU21D;54120;53.504;49.426;2023-05-10T09:41:20;18.32;20.72
67192;HTU21D;54120;53.504;49.426;2023-05-10T09:43:46;17.88;20.37
67192;HTU21D;54120;53.504;49.426;2023-05-10T09:46:13;17.50;21.07
67192;HTU21D;54120;53.504;49.426;2023-05-10T09:48:44;16.81;22.27
67192;HTU21D;54120;53.504;49.426;2023-05-10T09:51:21;16.78;22.33
67192;HTU21D;54120;53.504;49.426;2023-05-10T09:53:48;16.80;21.79
67192;HTU21D;54120;53.504;49.426;2023-05-10T09:56:41;17.47;21.37
67192;HTU21D;54120;53.504;49.426;2023-05-10T09:59:10;17.94;20.34
67192;HTU21D;54120;53.504;49.426;2023-05-10T10:01:37;18.06;19.81
67192;HTU21D;54120;53.504;49.426;2023-05-10T10:04:09;18.11;20.32
67192;HTU21D;54120;53.504;49.426;2023-05-10T10:06:39;17.82;21.40
67192;HTU21D;54120;53.504;49.426;2023-05-10T10:09:06;17.88;21.13
67192;HTU21D;54120;53.504;49.426;2023-05-10T10:11:38;17.95;20.32
67192;HTU21D;54120;53.504;49.426;2023-05-10T10:14:05;17.88;20.50
67192;HTU21D;54120;53.504;49.426;2023-05-10T10:16:32;18.33;21.47
67192;HTU21D;54120;53.504;49.426;2023-05-10T10:18:58;18.09;21.55
67192;HTU21D;54120;53.504;49.426;2023-05-10T10:21:24;18.26;20.89
67192;HTU21D;54120;53.504;49.426;2023-05-10T10:23:51;18.14;20.79
67192;HTU21D;54120;53.504;49.426;2023-05-10T10:26:19;17.79;20.99
67192;HTU21D;54120;53.504;49.426;2023-05-10T10:31:46;18.36;20.16
67192;HTU21D;54120;53.504;49.426;2023-05-10T10:36:46;18.78;20.31
67192;HTU21D;54120;53.504;49.426;2023-05-10T10:39:14;19.06;19.04
67192;HTU21D;54120;53.504;49.426;2023-05-10T10:42:01;18.93;19.92
67192;HTU21D;54120;53.504;49.426;2023-05-10T10:49:31;18.65;19.61
67192;HTU21D;54120;53.504;49.426;2023-05-10T10:55:18;18.34;20.71
67192;HTU21D;54120;53.504;49.426;2023-05-10T10:57:50;18.28;20.77
67192;HTU21D;54120;53.504;49.426;2023-05-10T11:00:18;18.12;20.08
67192;HTU21D;54120;53.504;49.426;2023-05-10T11:02:49;17.78;20.44
67192;HTU21D;54120;53.504;49.426;2023-05-10T11:05:26;17.81;20.04
67192;HTU21D;54120;53.504;49.426;2023-05-10T11:10:37;18.17;20.37
67192;HTU21D;54120;53.504;49.426;2023-05-10T11:13:09;18.49;19.41
67192;HTU21D;54120;53.504;49.426;2023-05-10T11:15:38;18.32;19.75
67192;HTU21D;54120;53.504;49.426;2023-05-10T11:18:25;18.40;19.45
67192;HTU21D;54120;53.504;49.426;2023-05-10T11:20:57;18.44;20.04
67192;HTU21D;54120;53.504;49.426;2023-05-10T11:23:30;18.32;19.36
67192;HTU21D;54120;53.504;49.426;2023-05-10T11:25:57;18.57;19.30
67192;HTU21D;54120;53.504;49.426;2023-05-10T11:28:23;19.08;19.55
67192;HTU21D;54120;53.504;49.426;2023-05-10T11:30:49;19.31;18.36
67192;HTU21D;54120;53.504;49.426;2023-05-10T11:33:17;19.15;18.29
67192;HTU21D;54120;53.504;49.426;2023-05-10T11:35:43;19.06;18.02
67192;HTU21D;54120;53.504;49.426;2023-05-10T11:38:11;18.84;19.15
67192;HTU21D;54120;53.504;49.426;2023-05-10T11:40:38;18.73;19.39
67192;HTU21D;54120;53.504;49.426;2023-05-10T11:43:04;18.56;18.82
67192;HTU21D;54120;53.504;49.426;2023-05-10T11:45:35;18.38;19.12
67192;HTU21D;54120;53.504;49.426;2023-05-10T11:48:02;18.53;19.26
67192;HTU21D;54120;53.504;49.426;2023-05-10T11:50:28;18.38;19.65
67192;HTU21D;54120;53.504;49.426;2023-05-10T11:52:55;18.06;19.73
67192;HTU21D;54120;53.504;49.426;2023-05-10T11:55:23;18.38;20.17
67192;HTU21D;54120;53.504;49.426;2023-05-10T11:57:54;19.16;18.68
67192;HTU21D;54120;53.504;49.426;2023-05-10T12:00:20;18.95;18.77
67192;HTU21D;54120;53.504;49.426;2023-05-10T12:02:48;19.12;18.89
67192;HTU21D;54120;53.504;49.426;2023-05-10T12:05:14;19.21;18.19
67192;HTU21D;54120;53.504;49.426;2023-05-10T12:07:41;18.92;19.34
67192;HTU21D;54120;53.504;49.426;2023-05-10T12:10:11;19.12;19.59
67192;HTU21D;54120;53.504;49.426;2023-05-10T12:12:42;19.38;18.38
67192;HTU21D;54120;53.504;49.426;2023-05-10T12:15:17;19.50;18.67
67192;HTU21D;54120;53.504;49.426;2023-05-10T12:17:45;19.07;18.59
67192;HTU21D;54120;53.504;49.426;2023-05-10T12:20:13;18.98;19.62
67192;HTU21D;54120;53.504;49.426;2023-05-10T12:22:43;19.00;18.87
67192;HTU21D;54120;53.504;49.426;2023-05-10T12:25:09;18.81;18.99
67192;HTU21D;54120;53.504;49.426;2023-05-10T12:27:36;19.18;18.88
67192;HTU21D;54120;53.504;49.426;2023-05-10T12:30:02;19.27;18.19
67192;HTU21D;54120;53.504;49.426;2023-05-10T12:32:44;19.21;18.25
67192;HTU21D;54120;53.504;49.426;2023-05-10T12:35:10;19.01;19.12
67192;HTU21D;54120;53.504;49.426;2023-05-10T12:37:36;18.99;19.46
67192;HTU21D;54120;53.504;49.426;2023-05-10T12:40:09;18.59;19.64
67192;HTU21D;54120;53.504;49.426;2023-05-10T12:42:37;18.46;19.89
67192;HTU21D;54120;53.504;49.426;2023-05-10T12:45:08;18.32;20.68
67192;HTU21D;54120;53.504;49.426;2023-05-10T12:47:34;18.32;20.12
67192;HTU21D;54120;53.504;49.426;2023-05-10T12:50:01;18.34;20.24
67192;HTU21D;54120;53.504;49.426;2023-05-10T12:52:29;18.62;20.24
67192;HTU21D;54120;53.504;49.426;2023-05-10T12:54:55;18.41;19.82
67192;HTU21D;54120;53.504;49.426;2023-05-10T12:57:21;18.58;20.41
67192;HTU21D;54120;53.504;49.426;2023-05-10T12:59:47;18.70;19.69
67192;HTU21D;54120;53.504;49.426;2023-05-10T13:02:13;18.77;20.17
67192;HTU21D;54120;53.504;49.426;2023-05-10T13:04:40;18.81;19.41
67192;HTU21D;54120;53.504;49.426;2023-05-10T13:07:07;18.79;19.51
67192;HTU21D;54120;53.504;49.426;2023-05-10T13:09:33;18.82;18.88
67192;HTU21D;54120;53.504;49.426;2023-05-10T13:12:02;18.49;19.45
67192;HTU21D;54120;53.504;49.426;2023-05-10T13:14:29;18.38;19.60
67192;HTU21D;54120;53.504;49.426;2023-05-10T13:16:55;18.19;19.87
67192;HTU21D;54120;53.504;49.426;2023-05-10T13:19:21;18.23;19.17
67192;HTU21D;54120;53.504;49.426;2023-05-10T13:21:48;18.13;19.95
67192;HTU21D;54120;53.504;49.426;2023-05-10T13:24:14;18.41;20.18
67192;HTU21D;54120;53.504;49.426;2023-05-10T13:26:41;18.48;19.31
67192;HTU21D;54120;53.504;49.426;2023-05-10T13:29:07;18.48;19.76
67192;HTU21D;54120;53.504;49.426;2023-05-10T13:31:34;18.46;19.99
67192;HTU21D;54120;53.504;49.426;2023-05-10T13:34:02;18.74;19.92
67192;HTU21D;54120;53.504;49.426;2023-05-10T13:36:28;18.67;19.73
67192;HTU21D;54120;53.504;49.426;2023-05-10T13:38:55;18.72;19.64
67192;HTU21D;54120;53.504;49.426;2023-05-10T13:41:21;18.57;19.44
67192;HTU21D;54120;53.504;49.426;2023-05-10T13:43:47;18.51;19.54
67192;HTU21D;54120;53.504;49.426;2023-05-10T13:46:15;18.49;20.37
67192;HTU21D;54120;53.504;49.426;2023-05-10T13:48:41;18.82;19.92
67192;HTU21D;54120;53.504;49.426;2023-05-10T13:51:08;18.83;18.77
67192;HTU21D;54120;53.504;49.426;2023-05-10T13:53:34;18.54;19.84
67192;HTU21D;54120;53.504;49.426;2023-05-10T13:56:00;18.67;18.95
67192;HTU21D;54120;53.504;49.426;2023-05-10T13:58:28;18.62;18.99
67192;HTU21D;54120;53.504;49.426;2023-05-10T14:00:55;18.74;19.22
67192;HTU21D;54120;53.504;49.426;2023-05-10T14:03:22;18.82;19.91
67192;HTU21D;54120;53.504;49.426;2023-05-10T14:05:48;18.83;19.45
67192;HTU21D;54120;53.504;49.426;2023-05-10T14:08:14;18.71;19.90
67192;HTU21D;54120;53.504;49.426;2023-05-10T14:10:42;18.68;20.02
67192;HTU21D;54120;53.504;49.426;2023-05-10T14:13:08;18.24;19.99
67192;HTU21D;54120;53.504;49.426;2023-05-10T14:15:34;18.05;20.41
67192;HTU21D;54120;53.504;49.426;2023-05-10T14:18:01;17.95;20.92
67192;HTU21D;54120;53.504;49.426;2023-05-10T14:20:27;17.77;21.61
67192;HTU21D;54120;53.504;49.426;2023-05-10T14:22:54;17.44;21.63
67192;HTU21D;54120;53.504;49.426;2023-05-10T14:25:20;17.22;22.16
67192;HTU21D;54120;53.504;49.426;2023-05-10T14:27:46;17.21;22.55
67192;HTU21D;54120;53.504;49.426;2023-05-10T14:30:13;17.14;22.53
67192;HTU21D;54120;53.504;49.426;2023-05-10T14:32:39;17.08;22.72
67192;HTU21D;54120;53.504;49.426;2023-05-10T14:35:05;17.13;22.66
67192;HTU21D;54120;53.504;49.426;2023-05-10T14:37:31;17.18;22.79
67192;HTU21D;54120;53.504;49.426;2023-05-10T14:39:58;17.21;22.68
67192;HTU21D;54120;53.504;49.426;2023-05-10T14:42:24;17.07;22.58
67192;HTU21D;54120;53.504;49.426;2023-05-10T14:44:50;16.95;22.94
67192;HTU21D;54120;53.504;49.426;2023-05-10T14:47:16;17.05;23.26
67192;HTU21D;54120;53.504;49.426;2023-05-10T14:49:42;17.04;22.91
67192;HTU21D;54120;53.504;49.426;2023-05-10T14:52:08;16.87;23.28
67192;HTU21D;54120;53.504;49.426;2023-05-10T14:54:33;16.79;23.73
67192;HTU21D;54120;53.504;49.426;2023-05-10T14:57:00;16.75;23.50
67192;HTU21D;54120;53.504;49.426;2023-05-10T14:59:26;16.67;23.96
67192;HTU21D;54120;53.504;49.426;2023-05-10T15:01:52;16.61;24.34
67192;HTU21D;54120;53.504;49.426;2023-05-10T15:04:18;16.55;24.49
67192;HTU21D;54120;53.504;49.426;2023-05-10T15:06:44;16.48;24.69
67192;HTU21D;54120;53.504;49.426;2023-05-10T15:09:10;16.39;24.76
67192;HTU21D;54120;53.504;49.426;2023-05-10T15:11:36;16.26;25.27
67192;HTU21D;54120;53.504;49.426;2023-05-10T15:14:02;16.18;25.62
67192;HTU21D;54120;53.504;49.426;2023-05-10T15:16:28;16.08;25.74
67192;HTU21D;54120;53.504;49.426;2023-05-10T15:18:54;16.06;25.94
67192;HTU21D;54120;53.504;49.426;2023-05-10T15:21:21;16.01;25.97
67192;HTU21D;54120;53.504;49.426;2023-05-10T15:23:47;15.95;26.23
67192;HTU21D;54120;53.504;49.426;2023-05-10T15:26:13;15.89;26.42
67192;HTU21D;54120;53.504;49.426;2023-05-10T15:28:39;15.82;26.39
67192;HTU21D;54120;53.504;49.426;2023-05-10T15:31:06;15.76;27.04
67192;HTU21D;54120;53.504;49.426;2023-05-10T15:33:32;15.72;27.05
67192;HTU21D;54120;53.504;49.426;2023-05-10T15:35:58;15.67;27.20